createdAt,value
2023-03-16T00:00:17.951Z,12.30
2023-03-16T00:02:45.848Z,12.40
2023-03-16T00:05:13.118Z,12.30
2023-03-16T00:07:41.484Z,12.30
2023-03-16T00:10:11.868Z,10.40
2023-03-16T00:12:42.835Z,11.70
2023-03-16T00:15:14.182Z,11.60
2023-03-16T00:17:41.030Z,12.10
2023-03-16T00:20:09.275Z,11.40
2023-03-16T00:22:36.513Z,11.70
2023-03-16T00:25:04.338Z,11.60
2023-03-16T00:27:31.736Z,10.70
2023-03-16T00:29:59.028Z,10.80
2023-03-16T00:32:27.572Z,11.20
2023-03-16T00:34:54.834Z,11.20
2023-03-16T00:37:23.000Z,11.30
2023-03-16T00:39:51.095Z,8.60
2023-03-16T00:42:18.825Z,10.90
2023-03-16T00:44:56.723Z,10.50
2023-03-16T00:47:28.876Z,12.20
2023-03-16T00:49:55.706Z,11.10
2023-03-16T00:52:23.050Z,10.60
2023-03-16T00:54:52.319Z,11.90
2023-03-16T00:57:21.886Z,10.40
2023-03-16T00:59:48.657Z,11.30
2023-03-16T01:02:24.901Z,11.10
2023-03-16T01:04:53.887Z,11.50
2023-03-16T01:07:21.473Z,11.80
2023-03-16T01:09:49.004Z,11.00
2023-03-16T01:12:19.959Z,11.70
2023-03-16T01:14:47.518Z,11.30
2023-03-16T01:17:15.467Z,11.40
2023-03-16T01:19:43.023Z,10.80
2023-03-16T01:22:11.035Z,10.20
2023-03-16T01:24:39.489Z,11.10
2023-03-16T01:27:07.582Z,11.00
2023-03-16T01:29:34.716Z,11.80
2023-03-16T01:32:01.847Z,11.60
2023-03-16T01:34:29.505Z,11.30
2023-03-16T01:36:56.979Z,11.60
2023-03-16T01:39:56.886Z,11.40
2023-03-16T01:42:24.194Z,12.30
2023-03-16T01:44:56.404Z,12.10
2023-03-16T01:47:28.777Z,11.80
2023-03-16T01:49:56.043Z,11.90
2023-03-16T01:52:28.506Z,11.90
2023-03-16T01:55:01.549Z,11.80
2023-03-16T01:57:34.698Z,12.10
2023-03-16T02:00:19.124Z,10.60
2023-03-16T02:03:17.101Z,11.70
2023-03-16T02:06:18.173Z,11.60
2023-03-16T02:08:48.984Z,12.10
2023-03-16T02:11:17.561Z,11.50
2023-03-16T02:13:52.286Z,11.90
2023-03-16T02:16:22.118Z,12.50
2023-03-16T02:18:50.478Z,12.40
2023-03-16T02:21:34.639Z,11.20
2023-03-16T02:24:02.695Z,12.10
2023-03-16T02:26:50.309Z,12.90
2023-03-16T02:29:43.495Z,12.50
2023-03-16T02:32:11.290Z,13.80
2023-03-16T02:34:39.750Z,12.20
2023-03-16T02:37:07.394Z,13.80
2023-03-16T02:39:34.876Z,13.90
2023-03-16T02:42:01.845Z,13.20
2023-03-16T02:44:34.705Z,12.70
2023-03-16T02:47:05.879Z,13.80
2023-03-16T02:49:40.906Z,12.60
2023-03-16T02:52:07.844Z,13.00
2023-03-16T02:54:34.638Z,13.20
2023-03-16T02:57:01.793Z,14.00
2023-03-16T02:59:29.664Z,14.20
2023-03-16T03:01:58.035Z,14.40
2023-03-16T03:04:24.995Z,14.50
2023-03-16T03:06:52.137Z,14.30
2023-03-16T03:09:19.127Z,14.10
2023-03-16T03:11:46.634Z,14.40
2023-03-16T03:14:16.338Z,15.20
2023-03-16T03:16:45.985Z,14.70
2023-03-16T03:19:13.610Z,15.10
2023-03-16T03:21:44.856Z,14.10
2023-03-16T03:24:12.205Z,14.80
2023-03-16T03:26:39.154Z,16.60
2023-03-16T03:29:08.871Z,16.10
2023-03-16T03:31:36.961Z,17.50
2023-03-16T03:34:06.152Z,17.70
2023-03-16T03:36:34.618Z,18.30
2023-03-16T03:39:04.572Z,18.80
2023-03-16T03:41:33.622Z,20.30
2023-03-16T03:44:01.894Z,20.50
2023-03-16T03:46:34.493Z,20.90
2023-03-16T03:49:04.792Z,20.00
2023-03-16T03:51:33.479Z,21.40
2023-03-16T03:54:08.109Z,21.30
2023-03-16T03:56:40.787Z,21.20
2023-03-16T03:59:11.720Z,20.80
2023-03-16T04:02:01.637Z,20.90
2023-03-16T04:04:43.514Z,19.20
2023-03-16T04:07:11.667Z,20.00
2023-03-16T04:09:38.953Z,19.20
2023-03-16T04:12:08.532Z,19.50
2023-03-16T04:14:35.573Z,21.00
2023-03-16T04:17:04.513Z,19.50
2023-03-16T04:19:32.328Z,19.50
2023-03-16T04:22:00.016Z,21.20
2023-03-16T04:24:28.161Z,20.60
2023-03-16T04:26:55.019Z,20.70
2023-03-16T04:29:22.152Z,21.20
2023-03-16T04:31:53.434Z,23.40
2023-03-16T04:34:24.544Z,23.50
2023-03-16T04:36:52.516Z,22.30
2023-03-16T04:39:20.290Z,22.60
2023-03-16T04:41:47.527Z,21.80
2023-03-16T04:44:20.205Z,22.20
2023-03-16T04:46:48.687Z,22.20
2023-03-16T04:49:16.486Z,20.90
2023-03-16T04:51:46.692Z,21.20
2023-03-16T04:54:15.741Z,21.00
2023-03-16T04:56:43.471Z,22.30
2023-03-16T04:59:33.106Z,20.80
2023-03-16T05:02:13.714Z,22.40
2023-03-16T05:04:42.614Z,24.70
2023-03-16T05:07:14.675Z,28.10
2023-03-16T05:09:45.780Z,28.10
2023-03-16T05:12:12.715Z,26.80
2023-03-16T05:14:41.052Z,27.10
2023-03-16T05:17:18.769Z,24.70
2023-03-16T05:19:45.731Z,26.00
2023-03-16T05:22:15.336Z,25.10
2023-03-16T05:24:53.866Z,23.80
2023-03-16T05:27:22.573Z,25.00
2023-03-16T05:29:49.686Z,23.80
2023-03-16T05:32:16.663Z,24.30
2023-03-16T05:34:43.783Z,23.10
2023-03-16T05:37:11.238Z,23.70
2023-03-16T05:39:38.212Z,22.70
2023-03-16T05:42:05.588Z,22.40
2023-03-16T05:44:41.083Z,21.60
2023-03-16T05:47:13.253Z,18.90
2023-03-16T05:49:44.085Z,18.40
2023-03-16T05:52:19.572Z,21.00
2023-03-16T05:54:46.883Z,19.00
2023-03-16T05:57:20.278Z,20.00
2023-03-16T05:59:48.617Z,20.60
2023-03-16T06:02:15.809Z,19.20
2023-03-16T06:04:42.789Z,20.00
2023-03-16T06:07:10.445Z,19.70
2023-03-16T06:09:40.735Z,19.00
2023-03-16T06:12:13.015Z,21.40
2023-03-16T06:14:40.738Z,19.70
2023-03-16T06:17:12.102Z,19.10
2023-03-16T06:19:42.237Z,18.80
2023-03-16T06:22:09.650Z,18.40
2023-03-16T06:24:45.672Z,19.90
2023-03-16T06:27:20.354Z,20.20
2023-03-16T06:30:09.047Z,19.50
2023-03-16T06:32:37.950Z,19.60
2023-03-16T06:35:05.274Z,19.60
2023-03-16T06:37:34.857Z,19.50
2023-03-16T06:40:06.863Z,18.60
2023-03-16T06:42:35.022Z,17.60
2023-03-16T06:45:05.137Z,17.20
2023-03-16T06:47:32.900Z,17.90
2023-03-16T06:50:00.482Z,18.90
2023-03-16T06:52:27.812Z,19.10
2023-03-16T06:54:58.205Z,19.10
2023-03-16T06:57:25.620Z,17.50
2023-03-16T06:59:52.658Z,16.60
2023-03-16T07:02:19.802Z,17.60
2023-03-16T07:04:47.808Z,17.50
2023-03-16T07:07:16.853Z,17.60
2023-03-16T07:09:43.632Z,16.80
2023-03-16T07:12:10.626Z,15.90
2023-03-16T07:14:39.204Z,17.60
2023-03-16T07:17:10.464Z,18.00
2023-03-16T07:19:38.018Z,17.30
2023-03-16T07:22:05.185Z,16.90
2023-03-16T07:24:35.811Z,16.40
2023-03-16T07:27:02.611Z,17.80
2023-03-16T07:29:31.792Z,17.60
2023-03-16T07:31:59.666Z,16.40
2023-03-16T07:34:33.097Z,16.50
2023-03-16T07:37:00.459Z,17.10
2023-03-16T07:39:30.001Z,16.50
2023-03-16T07:42:02.138Z,15.90
2023-03-16T07:44:37.784Z,16.80
2023-03-16T07:47:14.035Z,15.60
2023-03-16T07:49:41.748Z,16.70
2023-03-16T07:52:13.251Z,15.90
2023-03-16T07:54:41.447Z,16.80
2023-03-16T07:57:09.966Z,16.40
2023-03-16T07:59:47.396Z,18.10
2023-03-16T08:02:18.357Z,16.80
2023-03-16T08:04:45.799Z,16.80
2023-03-16T08:07:14.802Z,17.30
2023-03-16T08:09:54.627Z,18.00
2023-03-16T08:12:26.409Z,18.80
2023-03-16T08:14:54.163Z,20.00
2023-03-16T08:17:26.218Z,18.80
2023-03-16T08:19:57.295Z,18.20
2023-03-16T08:22:26.053Z,19.30
2023-03-16T08:24:53.720Z,17.70
2023-03-16T08:27:21.746Z,19.50
2023-03-16T08:29:52.742Z,18.40
2023-03-16T08:32:20.802Z,19.00
2023-03-16T08:34:48.084Z,18.20
2023-03-16T08:37:15.818Z,17.90
2023-03-16T08:39:44.386Z,18.40
2023-03-16T08:42:21.274Z,17.70
2023-03-16T08:45:05.410Z,19.00
2023-03-16T08:47:42.158Z,18.50
2023-03-16T08:50:17.641Z,19.10
2023-03-16T08:52:52.250Z,19.70
2023-03-16T08:55:24.108Z,19.20
2023-03-16T09:00:35.646Z,17.80
2023-03-16T09:16:47.718Z,19.10
2023-03-16T09:30:18.091Z,20.10
2023-03-16T09:35:36.684Z,25.60
2023-03-16T09:41:12.857Z,19.10
2023-03-16T09:44:20.937Z,18.30
2023-03-16T09:55:37.260Z,18.60
2023-03-16T09:58:07.584Z,19.10
2023-03-16T10:01:11.734Z,19.90
2023-03-16T10:04:07.577Z,18.70
2023-03-16T10:06:47.803Z,19.00
2023-03-16T10:09:20.651Z,19.10
2023-03-16T10:11:53.577Z,19.20
2023-03-16T10:14:44.780Z,18.10
2023-03-16T10:17:20.802Z,16.10
2023-03-16T10:19:54.327Z,17.80
2023-03-16T10:22:26.023Z,18.60
2023-03-16T10:25:08.002Z,18.50
2023-03-16T10:27:39.459Z,18.90
2023-03-16T10:30:19.350Z,18.00
2023-03-16T10:32:46.782Z,17.60
2023-03-16T10:35:41.492Z,16.00
2023-03-16T10:38:32.588Z,17.90
2023-03-16T10:41:00.830Z,17.50
2023-03-16T10:43:28.682Z,16.90
2023-03-16T10:46:01.788Z,16.20
2023-03-16T10:48:34.070Z,16.00
2023-03-16T10:51:03.409Z,17.10
2023-03-16T10:53:32.202Z,16.40
2023-03-16T10:56:25.537Z,15.30
2023-03-16T10:58:53.431Z,15.20
2023-03-16T11:01:28.558Z,15.70
2023-03-16T11:03:56.500Z,15.10
2023-03-16T11:06:30.511Z,15.90
2023-03-16T11:09:12.594Z,16.30
2023-03-16T11:11:39.734Z,15.00
2023-03-16T11:14:14.792Z,14.50
2023-03-16T11:17:10.066Z,15.30
2023-03-16T11:19:44.955Z,13.80
2023-03-16T11:22:19.456Z,15.40
2023-03-16T11:24:52.467Z,15.80
2023-03-16T11:27:29.420Z,15.90
2023-03-16T11:30:14.591Z,15.00
2023-03-16T11:32:46.483Z,16.00
2023-03-16T11:35:20.901Z,16.20
2023-03-16T11:38:01.166Z,14.80
2023-03-16T11:40:52.241Z,16.20
2023-03-16T11:43:24.008Z,15.70
2023-03-16T11:46:10.555Z,15.20
2023-03-16T11:49:01.208Z,15.20
2023-03-16T11:51:44.219Z,15.10
2023-03-16T11:54:36.632Z,15.60
2023-03-16T11:57:23.244Z,14.70
2023-03-16T12:00:15.232Z,15.50
2023-03-16T12:03:02.051Z,14.70
2023-03-16T12:05:30.708Z,14.80
2023-03-16T12:08:04.197Z,15.50
2023-03-16T12:10:35.732Z,14.70
2023-03-16T12:13:11.611Z,15.70
2023-03-16T12:15:47.580Z,15.60
2023-03-16T12:18:25.800Z,15.60
2023-03-16T12:20:54.032Z,15.20
2023-03-16T12:23:49.061Z,14.70
2023-03-16T12:26:16.975Z,15.50
2023-03-16T12:28:43.987Z,15.50
2023-03-16T12:31:18.697Z,15.00
2023-03-16T12:33:53.817Z,13.80
2023-03-16T12:36:39.696Z,14.60
2023-03-16T12:39:45.350Z,15.30
2023-03-16T12:42:16.255Z,16.20
2023-03-16T12:45:16.066Z,15.90
2023-03-16T12:47:46.413Z,15.60
2023-03-16T12:50:14.969Z,15.70
2023-03-16T12:52:47.590Z,14.40
2023-03-16T12:55:34.314Z,15.40
2023-03-16T12:58:02.463Z,15.30
2023-03-16T13:00:56.627Z,14.60
2023-03-16T13:03:24.739Z,16.90
2023-03-16T13:05:55.423Z,15.00
2023-03-16T13:08:23.025Z,16.10
2023-03-16T13:11:15.934Z,15.80
2023-03-16T13:13:59.675Z,16.10
2023-03-16T13:16:35.705Z,14.30
2023-03-16T13:19:18.976Z,15.20
2023-03-16T13:21:45.837Z,15.80
2023-03-16T13:24:36.308Z,14.70
2023-03-16T13:27:19.944Z,16.80
2023-03-16T13:29:58.746Z,13.80
2023-03-16T13:32:28.198Z,17.80
2023-03-16T13:34:57.888Z,17.90
2023-03-16T13:37:25.018Z,16.90
2023-03-16T13:39:54.659Z,17.20
2023-03-16T13:42:31.972Z,16.70
2023-03-16T13:45:14.863Z,15.70
2023-03-16T13:47:43.041Z,15.50
2023-03-16T13:50:13.193Z,14.80
2023-03-16T13:52:42.756Z,13.90
2023-03-16T13:55:17.520Z,14.60
2023-03-16T13:57:45.035Z,14.30
2023-03-16T14:00:36.324Z,14.70
2023-03-16T14:03:15.794Z,12.40
2023-03-16T14:05:47.246Z,12.00
2023-03-16T14:08:22.962Z,13.80
2023-03-16T14:10:50.417Z,13.20
2023-03-16T14:13:23.888Z,10.80
2023-03-16T14:15:54.997Z,12.20
2023-03-16T14:18:31.562Z,11.10
2023-03-16T14:20:58.217Z,10.60
2023-03-16T14:23:36.243Z,10.40
2023-03-16T14:26:04.927Z,10.80
2023-03-16T14:28:34.241Z,10.30
2023-03-16T14:31:04.221Z,10.80
2023-03-16T14:33:37.170Z,11.40
2023-03-16T14:36:18.610Z,11.30
2023-03-16T14:38:48.430Z,11.40
2023-03-16T14:41:27.947Z,10.70
2023-03-16T14:43:57.158Z,10.80
2023-03-16T14:46:30.225Z,10.00
2023-03-16T14:49:00.804Z,10.70
2023-03-16T14:51:28.006Z,9.20
2023-03-16T14:53:55.109Z,9.80
2023-03-16T14:56:22.743Z,9.50
2023-03-16T14:58:50.152Z,9.30
2023-03-16T15:01:17.758Z,9.70
2023-03-16T15:03:44.449Z,9.80
2023-03-16T15:06:12.078Z,9.40
2023-03-16T15:08:43.706Z,10.40
2023-03-16T15:11:10.746Z,8.00
2023-03-16T15:13:39.300Z,10.50
2023-03-16T15:16:07.102Z,10.30
2023-03-16T15:18:38.762Z,10.30
2023-03-16T15:21:12.213Z,10.30
2023-03-16T15:23:39.984Z,9.90
2023-03-16T15:26:09.066Z,10.00
2023-03-16T15:28:37.041Z,9.20
2023-03-16T15:31:04.748Z,11.20
2023-03-16T15:33:32.144Z,11.10
2023-03-16T15:36:00.787Z,11.10
2023-03-16T15:38:35.727Z,10.40
2023-03-16T15:41:02.954Z,11.00
2023-03-16T15:43:30.278Z,10.90
2023-03-16T15:45:59.368Z,11.00
2023-03-16T15:48:26.620Z,10.70
2023-03-16T15:50:55.636Z,10.40
2023-03-16T15:53:30.885Z,10.40
2023-03-16T15:56:04.151Z,11.20
2023-03-16T15:58:35.779Z,11.00
2023-03-16T16:01:04.709Z,10.40
2023-03-16T16:03:33.467Z,10.20
2023-03-16T16:06:00.584Z,9.80
2023-03-16T16:08:27.461Z,10.70
2023-03-16T16:10:54.874Z,9.50
2023-03-16T16:13:34.100Z,10.90
2023-03-16T16:16:16.210Z,10.20
2023-03-16T16:18:43.096Z,10.40
2023-03-16T16:21:28.687Z,7.50
2023-03-16T16:23:56.270Z,10.70
2023-03-16T16:26:47.049Z,10.80
2023-03-16T16:29:21.508Z,12.20
2023-03-16T16:34:20.523Z,11.50
2023-03-16T16:36:48.456Z,11.70
2023-03-16T16:39:15.616Z,11.80
2023-03-16T16:41:48.672Z,11.10
2023-03-16T16:44:24.577Z,12.30
2023-03-16T16:46:51.684Z,12.40
2023-03-16T16:49:25.950Z,11.90
2023-03-16T16:51:53.269Z,11.70
2023-03-16T16:54:25.014Z,11.60
2023-03-16T16:56:52.773Z,11.50
2023-03-16T16:59:21.183Z,11.20
2023-03-16T17:01:50.171Z,11.70
2023-03-16T17:04:24.903Z,12.60
2023-03-16T17:06:59.196Z,11.10
2023-03-16T17:09:27.274Z,10.80
2023-03-16T17:11:58.028Z,11.30
2023-03-16T17:14:27.183Z,10.60
2023-03-16T17:17:02.115Z,10.40
2023-03-16T17:19:31.105Z,10.40
2023-03-16T17:21:57.844Z,10.90
2023-03-16T17:24:29.187Z,11.20
2023-03-16T17:26:58.250Z,11.10
2023-03-16T17:29:29.368Z,10.40
2023-03-16T17:32:02.464Z,10.80
2023-03-16T17:34:31.661Z,8.10
2023-03-16T17:36:58.696Z,11.40
2023-03-16T17:39:31.142Z,10.60
2023-03-16T17:42:06.344Z,10.30
2023-03-16T17:44:37.721Z,11.50
2023-03-16T17:47:12.494Z,9.80
2023-03-16T17:49:39.804Z,10.40
2023-03-16T17:52:21.019Z,9.50
2023-03-16T17:54:51.396Z,9.40
2023-03-16T17:57:29.104Z,9.80
2023-03-16T17:59:55.976Z,9.10
2023-03-16T18:02:43.986Z,8.80
2023-03-16T18:05:37.873Z,9.60
2023-03-16T18:08:18.123Z,9.90
2023-03-16T18:10:49.597Z,9.10
2023-03-16T18:15:59.279Z,8.90
2023-03-16T18:18:27.610Z,8.20
2023-03-16T18:20:56.418Z,8.90
2023-03-16T18:23:30.015Z,8.20
2023-03-16T18:26:01.453Z,6.10
2023-03-16T18:28:32.213Z,8.70
2023-03-16T18:30:59.328Z,7.80
2023-03-16T18:33:27.028Z,7.70
2023-03-16T18:35:56.181Z,7.90
2023-03-16T18:38:30.003Z,7.90
2023-03-16T18:41:03.026Z,7.10
2023-03-16T18:43:29.918Z,6.90
2023-03-16T18:45:57.992Z,7.10
2023-03-16T18:48:28.809Z,7.50
2023-03-16T18:50:56.080Z,7.50
2023-03-16T18:53:23.264Z,7.40
2023-03-16T18:55:50.281Z,7.50
2023-03-16T18:58:20.293Z,7.20
2023-03-16T19:00:55.874Z,6.90
2023-03-16T19:03:27.420Z,7.30
2023-03-16T19:05:55.696Z,6.10
2023-03-16T19:08:22.630Z,6.50
2023-03-16T19:10:52.250Z,7.00
2023-03-16T19:13:21.136Z,6.00
2023-03-16T19:15:49.070Z,6.20
2023-03-16T19:18:19.555Z,6.00
2023-03-16T19:20:49.947Z,5.80
2023-03-16T19:23:25.244Z,5.40
2023-03-16T19:25:52.782Z,5.90
2023-03-16T19:28:36.864Z,4.90
2023-03-16T19:31:18.012Z,5.10
2023-03-16T19:33:45.922Z,5.40
2023-03-16T19:36:18.668Z,5.20
2023-03-16T19:38:49.937Z,5.10
2023-03-16T19:41:26.656Z,5.40
2023-03-16T19:43:58.484Z,5.00
2023-03-16T19:46:28.771Z,4.90
2023-03-16T19:48:57.290Z,4.90
2023-03-16T19:51:26.148Z,4.90
2023-03-16T19:53:55.266Z,4.60
2023-03-16T19:56:23.501Z,5.30
2023-03-16T19:58:51.919Z,4.10
2023-03-16T20:01:21.523Z,4.70
2023-03-16T20:03:48.928Z,5.00
2023-03-16T20:06:20.637Z,4.90
2023-03-16T20:08:49.540Z,4.70
2023-03-16T20:11:18.209Z,4.20
2023-03-16T20:13:46.312Z,4.50
2023-03-16T20:16:34.631Z,4.00
2023-03-16T20:19:04.632Z,3.80
2023-03-16T20:21:33.017Z,3.60
2023-03-16T20:23:59.860Z,4.10
2023-03-16T20:26:31.722Z,3.80
2023-03-16T20:28:59.994Z,3.90
2023-03-16T20:31:30.685Z,3.60
2023-03-16T20:33:58.817Z,3.40
2023-03-16T20:36:26.016Z,3.60
2023-03-16T20:38:54.857Z,3.70
2023-03-16T20:41:25.769Z,4.30
2023-03-16T20:43:53.968Z,4.10
2023-03-16T20:46:26.717Z,3.30
2023-03-16T20:48:54.631Z,3.70
2023-03-16T20:51:24.304Z,3.50
2023-03-16T20:53:52.172Z,3.20
2023-03-16T20:56:20.467Z,3.70
2023-03-16T20:58:50.225Z,2.90
2023-03-16T21:01:20.288Z,3.10
2023-03-16T21:03:53.735Z,3.50
2023-03-16T21:06:23.175Z,3.40
2023-03-16T21:08:51.392Z,3.00
2023-03-16T21:11:23.529Z,3.20
2023-03-16T21:13:52.914Z,2.80
2023-03-16T21:16:20.316Z,2.80
2023-03-16T21:18:47.732Z,2.80
2023-03-16T21:21:16.106Z,2.90
2023-03-16T21:23:43.223Z,2.60
2023-03-16T21:26:15.012Z,2.50
2023-03-16T21:28:43.390Z,2.40
2023-03-16T21:31:19.434Z,2.40
2023-03-16T21:33:47.728Z,2.60
2023-03-16T21:36:16.862Z,2.50
2023-03-16T21:38:45.505Z,2.80
2023-03-16T21:41:13.574Z,2.90
2023-03-16T21:43:43.596Z,3.10
2023-03-16T21:46:19.186Z,2.60
2023-03-16T21:48:49.031Z,2.70
2023-03-16T21:51:24.452Z,2.40
2023-03-16T21:53:52.976Z,2.00
2023-03-16T21:56:22.344Z,2.70
2023-03-16T21:58:49.913Z,2.10
2023-03-16T22:01:24.278Z,2.00
2023-03-16T22:03:53.556Z,1.90
2023-03-16T22:06:21.518Z,2.00
2023-03-16T22:08:50.612Z,1.90
2023-03-16T22:11:22.658Z,1.80
2023-03-16T22:13:51.577Z,1.90
2023-03-16T22:16:22.583Z,1.90
2023-03-16T22:18:51.501Z,1.80
2023-03-16T22:21:26.941Z,1.90
2023-03-16T22:23:57.611Z,2.00
2023-03-16T22:26:24.926Z,1.60
2023-03-16T22:29:00.038Z,2.10
2023-03-16T22:31:34.487Z,2.00
2023-03-16T22:34:02.328Z,2.10
2023-03-16T22:36:29.314Z,2.00
2023-03-16T22:38:59.277Z,1.90
2023-03-16T22:41:26.052Z,2.40
2023-03-16T22:43:53.765Z,2.40
2023-03-16T22:46:23.020Z,2.30
2023-03-16T22:48:51.715Z,2.10
2023-03-16T22:51:30.943Z,2.10
2023-03-16T22:54:08.121Z,2.40
2023-03-16T22:56:35.577Z,1.80
2023-03-16T22:59:04.153Z,2.10
2023-03-16T23:01:39.187Z,2.30
2023-03-16T23:04:15.584Z,1.80
2023-03-16T23:06:44.680Z,1.60
2023-03-16T23:09:13.333Z,2.00
2023-03-16T23:11:43.021Z,2.30
2023-03-16T23:14:15.422Z,2.30
2023-03-16T23:16:42.553Z,2.10
2023-03-16T23:19:43.116Z,1.90
2023-03-16T23:22:10.461Z,2.10
2023-03-16T23:24:37.357Z,2.40
2023-03-16T23:27:04.751Z,2.20
2023-03-16T23:29:33.348Z,2.20
2023-03-16T23:32:06.013Z,2.10
2023-03-16T23:34:32.855Z,1.80
2023-03-16T23:36:59.592Z,1.80
2023-03-16T23:39:27.873Z,1.70
2023-03-16T23:41:55.666Z,1.70
2023-03-16T23:44:25.050Z,1.90
2023-03-16T23:46:52.286Z,2.20
2023-03-16T23:49:25.432Z,1.80
2023-03-16T23:51:52.648Z,1.80
2023-03-16T23:54:22.640Z,1.40
2023-03-16T23:56:50.783Z,1.70
2023-03-16T23:59:18.709Z,1.60
